Time;durP1;ratioP1;P1;durP2;ratioP2;P2;SDS_P1;SDS_P2;PMS_P1;PMS_P2;Temp;Humidity;BMP_temperature;BMP_pressure;BME280_temperature;BME280_humidity;BME280_pressure;Samples;Min_cycle;Max_cycle;Signal;HPM_P1;HPM_P2
2022/11/16 06:24:20;;;;;;;17.98;9.25;;;;;;;7.57;88.56;96840.97;6163733;23;20446;-66
2022/11/16 06:26:46;;;;;;;18.00;9.52;;;;;;;7.55;89.30;96837.63;6156027;23;20013;-66
2022/11/16 06:29:11;;;;;;;19.40;9.32;;;;;;;7.54;89.40;96837.75;6182395;23;20012;-65
2022/11/16 06:31:36;;;;;;;16.40;10.00;;;;;;;7.52;88.90;96842.25;6183802;23;20015;-65
2022/11/16 06:34:02;;;;;;;17.10;9.35;;;;;;;7.53;89.10;96849.13;6181292;23;20007;-65
2022/11/16 06:36:27;;;;;;;16.15;9.23;;;;;;;7.56;88.94;96846.28;6182191;23;20071;-64
2022/11/16 06:38:53;;;;;;;17.42;9.40;;;;;;;7.53;89.55;96838.69;6181781;23;20039;-64
2022/11/16 06:41:18;;;;;;;18.48;10.05;;;;;;;7.53;88.83;96844.75;6182555;23;20011;-64
2022/11/16 06:43:43;;;;;;;18.60;9.98;;;;;;;7.53;89.08;96842.13;6183632;23;20012;-63
2022/11/16 06:46:09;;;;;;;20.88;9.95;;;;;;;7.54;89.25;96840.38;6132257;23;20003;-64
2022/11/16 06:48:34;;;;;;;14.77;8.48;;;;;;;7.55;89.26;96847.25;6182788;23;20430;-67
2022/11/16 06:51:00;;;;;;;18.60;9.85;;;;;;;7.54;89.16;96845.59;6182573;23;20005;-64
2022/11/16 06:53:25;;;;;;;17.83;9.45;;;;;;;7.56;89.72;96854.09;6156854;23;20005;-64
2022/11/16 06:55:51;;;;;;;16.45;9.30;;;;;;;7.57;89.21;96846.19;6155991;23;20385;-65
2022/11/16 06:58:16;;;;;;;16.90;9.65;;;;;;;7.57;89.80;96840.09;6157394;23;20004;-64
2022/11/16 07:00:42;;;;;;;18.23;9.68;;;;;;;7.60;89.52;96847.69;6181863;23;20001;-65
2022/11/16 07:03:07;;;;;;;18.70;9.55;;;;;;;7.58;89.51;96847.00;6132288;23;20080;-66
2022/11/16 07:05:32;;;;;;;18.75;10.10;;;;;;;7.57;89.57;96850.53;6182178;23;20008;-64
2022/11/16 07:07:58;;;;;;;16.05;9.43;;;;;;;7.60;89.41;96856.38;6182120;23;20004;-65
2022/11/16 07:10:23;;;;;;;18.05;9.85;;;;;;;7.61;89.80;96857.22;6182375;23;20427;-67
2022/11/16 07:12:49;;;;;;;17.60;9.68;;;;;;;7.61;90.02;96860.66;6155859;23;20005;-65
2022/11/16 07:15:14;;;;;;;18.63;9.50;;;;;;;7.60;89.52;96864.22;6181948;23;20008;-65
2022/11/16 07:17:41;;;;;;;17.58;10.30;;;;;;;7.61;89.47;96865.03;6183710;23;20011;-64
2022/11/16 07:20:06;;;;;;;18.75;9.77;;;;;;;7.61;89.71;96872.88;6157813;23;19994;-64
2022/11/16 07:22:32;;;;;;;16.92;9.25;;;;;;;7.60;89.30;96879.00;6182871;23;20446;-65
2022/11/16 07:24:57;;;;;;;18.05;9.88;;;;;;;7.61;89.72;96894.56;6183274;23;20063;-65
2022/11/16 07:27:23;;;;;;;18.52;9.90;;;;;;;7.58;88.65;96904.41;6183962;23;20012;-65
2022/11/16 07:29:48;;;;;;;17.05;9.85;;;;;;;7.57;88.46;96900.97;6157668;23;20012;-65
2022/11/16 07:32:13;;;;;;;17.27;9.35;;;;;;;7.62;88.61;96905.84;6183080;23;20333;-65
2022/11/16 07:34:39;;;;;;;17.02;9.63;;;;;;;7.65;88.95;96904.78;6183414;23;20001;-66
2022/11/16 07:37:04;;;;;;;17.27;9.02;;;;;;;7.67;89.33;96914.13;6183748;23;20003;-64
2022/11/16 07:39:29;;;;;;;18.77;9.75;;;;;;;7.67;88.82;96924.56;6183864;23;20055;-63
2022/11/16 07:41:55;;;;;;;17.20;9.60;;;;;;;7.69;89.27;96912.22;6183773;23;20005;-65
2022/11/16 07:44:20;;;;;;;19.58;9.32;;;;;;;7.72;89.56;96912.00;6183351;23;20001;-64
2022/11/16 07:46:46;;;;;;;17.15;9.07;;;;;;;7.77;89.69;96920.28;6157367;23;20009;-65
2022/11/16 07:49:15;;;;;;;17.40;9.20;;;;;;;7.81;90.10;96911.28;6183661;23;20005;-65
2022/11/16 07:51:41;;;;;;;16.65;9.48;;;;;;;7.84;90.28;96905.84;6157591;23;20450;-64
2022/11/16 07:54:07;;;;;;;15.50;8.63;;;;;;;7.89;89.74;96902.84;6183328;23;20005;-64
2022/11/16 07:56:32;;;;;;;17.40;9.65;;;;;;;7.93;89.40;96909.50;6183747;23;20007;-64
2022/11/16 07:58:58;;;;;;;19.15;10.77;;;;;;;7.95;89.48;96906.75;6183711;23;20080;-64
2022/11/16 08:01:23;;;;;;;16.45;9.45;;;;;;;8.00;89.55;96909.84;6132957;23;20142;-64
2022/11/16 08:03:51;;;;;;;16.80;9.30;;;;;;;8.02;89.37;96913.19;6157436;23;20001;-64
2022/11/16 08:06:20;;;;;;;15.68;9.18;;;;;;;8.05;88.99;96907.69;6157811;23;20123;-65
2022/11/16 08:08:45;;;;;;;16.92;9.32;;;;;;;8.09;89.19;96906.53;6133301;23;20001;-64
2022/11/16 08:11:11;;;;;;;16.90;9.43;;;;;;;8.10;89.29;96902.94;6183957;23;20027;-65
2022/11/16 08:13:37;;;;;;;18.17;9.65;;;;;;;8.13;89.17;96914.94;6132798;23;20096;-65
2022/11/16 08:16:08;;;;;;;16.30;9.10;;;;;;;8.13;89.37;96907.94;6133116;23;20115;-65
2022/11/16 08:18:33;;;;;;;16.40;9.07;;;;;;;8.17;88.82;96911.94;6135823;23;20066;-65
2022/11/16 08:21:00;;;;;;;16.67;9.25;;;;;;;8.18;89.17;96908.38;6185623;23;20397;-65
2022/11/16 08:23:25;;;;;;;17.25;9.25;;;;;;;8.18;89.11;96907.56;6134796;23;20009;-64
2022/11/16 08:25:51;;;;;;;16.55;8.95;;;;;;;8.18;88.83;96908.38;6159216;23;20395;-64
2022/11/16 08:28:16;;;;;;;15.68;8.82;;;;;;;8.22;89.24;96908.97;6185471;23;20079;-65
2022/11/16 08:30:41;;;;;;;18.35;9.77;;;;;;;8.23;89.00;96910.66;6159007;23;20005;-64
2022/11/16 08:33:08;;;;;;;16.83;9.40;;;;;;;8.23;89.28;96908.88;6185417;23;20027;-64
2022/11/16 08:35:34;;;;;;;18.70;10.27;;;;;;;8.23;88.64;96908.88;6159403;23;20012;-64
2022/11/16 08:38:00;;;;;;;18.55;10.20;;;;;;;8.26;88.85;96913.84;6159145;23;20001;-64
2022/11/16 08:40:25;;;;;;;16.45;9.68;;;;;;;8.28;88.84;96906.69;6185309;23;20454;-64
2022/11/16 08:42:55;;;;;;;16.02;9.15;;;;;;;8.31;88.81;96909.06;6159058;23;20080;-65
2022/11/16 08:45:24;;;;;;;17.90;9.93;;;;;;;8.35;88.54;96898.38;6185280;23;20001;-65
2022/11/16 08:47:51;;;;;;;16.23;9.40;;;;;;;8.40;89.03;96904.13;6184845;23;20339;-65
2022/11/16 08:50:16;;;;;;;17.55;9.77;;;;;;;8.46;88.54;96908.81;6185122;23;20370;-65
2022/11/16 08:52:41;;;;;;;17.60;9.82;;;;;;;8.48;88.98;96909.53;6158728;23;20008;-64
2022/11/16 08:55:07;;;;;;;17.23;9.50;;;;;;;8.48;88.40;96915.59;6158700;23;20076;-65
2022/11/16 08:57:32;;;;;;;18.08;9.35;;;;;;;8.47;88.29;96907.88;6158824;23;20004;-65
2022/11/16 08:59:58;;;;;;;17.33;9.20;;;;;;;8.47;88.59;96910.50;6158891;23;20060;-65
2022/11/16 09:02:26;;;;;;;15.43;8.43;;;;;;;8.48;89.22;96912.16;6185107;23;20391;-64
2022/11/16 09:04:52;;;;;;;15.43;8.73;;;;;;;8.50;88.61;96913.69;6184869;23;20001;-65
2022/11/16 09:07:17;;;;;;;17.20;9.45;;;;;;;8.53;89.10;96917.81;6158705;23;20001;-65
2022/11/16 09:09:42;;;;;;;14.75;8.40;;;;;;;8.56;88.97;96917.56;6158751;23;20072;-65
2022/11/16 09:12:08;;;;;;;14.75;8.35;;;;;;;8.63;88.95;96923.97;6158786;23;20009;-65
2022/11/16 09:14:33;;;;;;;16.25;8.77;;;;;;;8.68;89.00;96910.53;6184723;23;20072;-65
2022/11/16 09:16:59;;;;;;;18.33;9.43;;;;;;;8.71;88.70;96918.97;6185070;23;20013;-64
2022/11/16 09:19:24;;;;;;;17.63;9.70;;;;;;;8.75;88.44;96911.69;6184962;23;20334;-65
2022/11/16 09:21:49;;;;;;;19.65;10.23;;;;;;;8.74;88.28;96910.88;6184931;23;20459;-64
2022/11/16 09:24:15;;;;;;;17.13;9.57;;;;;;;8.82;88.16;96917.25;6184401;23;20009;-64
2022/11/16 09:26:40;;;;;;;17.73;9.68;;;;;;;8.88;88.29;96911.50;6184955;23;20055;-66
2022/11/16 09:29:05;;;;;;;14.93;8.90;;;;;;;8.94;88.17;96921.47;6158033;23;20004;-64
2022/11/16 09:31:33;;;;;;;16.45;8.82;;;;;;;8.99;87.77;96920.16;6184924;23;20394;-64
2022/11/16 09:33:58;;;;;;;17.25;9.35;;;;;;;9.03;87.83;96923.34;6158055;23;20084;-64
2022/11/16 09:36:25;;;;;;;14.30;8.07;;;;;;;9.06;87.68;96923.09;6185038;23;20085;-64
2022/11/16 09:38:53;;;;;;;14.98;8.88;;;;;;;9.09;87.99;96928.06;6159048;23;20004;-64
2022/11/16 09:41:34;;;;;;;17.42;9.68;;;;;;;9.10;87.95;96923.66;6184762;23;19997;-64
2022/11/16 09:44:21;;;;;;;17.77;9.53;;;;;;;9.12;87.65;96935.66;6135958;23;20004;-65
2022/11/16 09:46:48;;;;;;;15.00;8.05;;;;;;;9.15;87.78;96935.41;6184549;23;20226;-64
2022/11/16 09:49:17;;;;;;;18.30;9.55;;;;;;;9.19;87.46;96944.66;6134321;23;20005;-66
2022/11/16 09:51:42;;;;;;;15.73;8.60;;;;;;;9.22;87.91;96947.03;6134470;23;20025;-64
2022/11/16 09:54:11;;;;;;;16.58;9.10;;;;;;;9.24;88.18;96939.84;6158050;23;20055;-64
2022/11/16 09:56:38;;;;;;;15.60;8.80;;;;;;;9.28;87.87;96941.25;6133949;23;20005;-65
2022/11/16 09:59:06;;;;;;;15.85;8.70;;;;;;;9.40;87.45;96928.94;6133911;23;20335;-64
2022/11/16 10:01:33;;;;;;;14.65;8.50;;;;;;;9.53;87.12;96928.72;6184625;23;20000;-64
2022/11/16 10:04:10;;;;;;;15.68;7.85;;;;;;;9.69;86.87;96934.31;6157920;23;20028;-65
2022/11/16 10:06:44;;;;;;;15.80;8.23;;;;;;;9.83;86.52;96924.47;6158145;23;20441;-64
2022/11/16 10:09:11;;;;;;;17.42;9.40;;;;;;;9.97;86.33;96922.31;6159179;23;20063;-65
2022/11/16 10:11:47;;;;;;;13.70;8.23;;;;;;;10.12;86.12;96920.19;6109811;23;20016;-64
2022/11/16 10:14:34;;;;;;;15.13;8.75;;;;;;;10.26;85.12;96926.03;6184128;23;20011;-64
2022/11/16 10:17:02;;;;;;;15.80;8.77;;;;;;;10.35;85.53;96925.22;6184796;23;20017;-65
2022/11/16 10:19:53;;;;;;;15.63;8.60;;;;;;;10.41;84.69;96929.91;6184666;23;20001;-64
2022/11/16 10:22:30;;;;;;;15.73;8.95;;;;;;;10.51;84.31;96924.69;6137446;23;20001;-64
2022/11/16 10:24:56;;;;;;;14.95;8.95;;;;;;;10.64;84.29;96927.91;6157576;23;20005;-64
2022/11/16 10:27:38;;;;;;;15.98;8.75;;;;;;;10.75;84.15;96924.31;6158254;23;20001;-64
2022/11/16 10:30:16;;;;;;;15.73;8.63;;;;;;;10.82;83.35;96922.78;6158276;23;20005;-64
2022/11/16 10:33:00;;;;;;;15.15;8.65;;;;;;;10.82;83.40;96921.00;6184207;23;20008;-64
2022/11/16 10:35:46;;;;;;;14.13;8.10;;;;;;;10.80;83.55;96924.72;6133328;23;20096;-66
2022/11/16 10:38:16;;;;;;;14.63;8.55;;;;;;;10.83;83.51;96919.19;6133806;23;20059;-65
2022/11/16 10:40:41;;;;;;;16.25;9.38;;;;;;;10.81;83.03;96915.91;6158618;23;20004;-64
2022/11/16 10:43:09;;;;;;;16.50;9.65;;;;;;;10.77;83.07;96919.75;6133078;23;20005;-65
2022/11/16 10:45:37;;;;;;;15.10;8.40;;;;;;;10.79;83.08;96905.53;6184170;23;20004;-64
2022/11/16 10:48:10;;;;;;;15.98;8.98;;;;;;;10.82;82.96;96907.06;6157447;23;20342;-64
2022/11/16 10:50:41;;;;;;;16.80;9.32;;;;;;;10.86;83.10;96913.69;6134130;23;20005;-64
2022/11/16 10:53:12;;;;;;;15.10;8.15;;;;;;;10.98;82.72;96901.22;6157448;23;20001;-65
2022/11/16 10:55:37;;;;;;;16.80;9.23;;;;;;;11.05;82.27;96907.59;6133722;23;20483;-65
2022/11/16 10:58:04;;;;;;;13.75;7.80;;;;;;;11.04;82.49;96911.19;6184083;23;20435;-64
2022/11/16 11:00:40;;;;;;;15.00;8.90;;;;;;;11.06;82.93;96904.81;6158131;23;20022;-66
2022/11/16 11:03:06;;;;;;;15.85;9.45;;;;;;;11.10;82.42;96900.13;6157721;23;20015;-64
2022/11/16 11:05:33;;;;;;;15.25;8.70;;;;;;;11.13;82.45;96900.69;6158081;23;20005;-64
2022/11/16 11:08:02;;;;;;;13.43;8.13;;;;;;;11.19;83.05;96898.47;6133906;23;20117;-65
2022/11/16 11:10:36;;;;;;;15.63;9.18;;;;;;;11.22;83.18;96898.16;6157899;23;20008;-65
2022/11/16 11:13:14;;;;;;;15.40;8.50;;;;;;;11.20;82.84;96900.94;6157426;23;20004;-64
2022/11/16 11:15:41;;;;;;;14.52;8.55;;;;;;;11.22;82.92;96900.78;6135547;23;20031;-65
2022/11/16 11:18:23;;;;;;;14.80;8.90;;;;;;;11.31;83.05;96899.94;6133698;23;20020;-64
2022/11/16 11:21:31;;;;;;;15.18;8.55;;;;;;;11.31;83.40;96894.69;6184307;23;20051;-64
2022/11/16 11:23:58;;;;;;;14.35;8.65;;;;;;;11.33;83.41;96893.59;6178809;23;20076;-64
2022/11/16 11:26:33;;;;;;;15.65;8.77;;;;;;;11.37;82.95;96891.53;6133977;23;20008;-64
2022/11/16 11:28:58;;;;;;;13.90;9.20;;;;;;;11.41;82.69;96885.00;6134240;23;20024;-64
2022/11/16 11:31:45;;;;;;;16.45;10.07;;;;;;;11.48;82.63;96888.72;6108693;23;20435;-65
2022/11/16 11:34:15;;;;;;;13.90;8.95;;;;;;;11.57;82.78;96889.66;6132941;23;20005;-64
2022/11/16 11:36:52;;;;;;;14.60;8.60;;;;;;;11.68;82.36;96884.22;6157666;23;20132;-64
2022/11/16 11:39:18;;;;;;;15.05;8.77;;;;;;;11.83;81.58;96879.31;6133627;23;20028;-64
2022/11/16 11:41:44;;;;;;;12.73;8.02;;;;;;;11.95;82.01;96875.56;6183826;23;20004;-64
2022/11/16 11:44:12;;;;;;;14.95;8.23;;;;;;;12.13;81.47;96874.78;6133108;23;20072;-64
2022/11/16 11:46:37;;;;;;;14.27;8.10;;;;;;;12.36;80.99;96865.53;6183192;23;20454;-65
2022/11/16 11:49:09;;;;;;;13.85;7.72;;;;;;;12.74;79.51;96871.47;6157471;23;20005;-64
2022/11/16 11:51:35;;;;;;;;;;;;;;;12.96;79.42;96873.63;6134527;23;20001;-65
2022/11/16 11:54:01;;;;;;;12.85;6.45;;;;;;;13.06;79.10;96871.72;6159159;23;19904;-65
2022/11/16 11:56:29;;;;;;;11.65;7.20;;;;;;;13.25;78.53;96868.13;6135006;23;20000;-65
2022/11/16 11:58:55;;;;;;;11.70;6.93;;;;;;;13.59;77.72;96861.22;6135581;23;20013;-64
2022/11/16 12:01:39;;;;;;;13.23;7.35;;;;;;;13.72;77.19;96856.34;6159550;23;20072;-65
2022/11/16 12:04:07;;;;;;;12.27;7.30;;;;;;;13.71;76.88;96860.81;6185693;23;20001;-65
2022/11/16 12:06:35;;;;;;;12.68;8.02;;;;;;;13.69;76.92;96859.31;6156853;23;20088;-64
2022/11/16 12:09:10;;;;;;;13.05;7.50;;;;;;;13.65;76.79;96855.34;6156705;23;20016;-65
2022/11/16 12:12:13;;;;;;;12.70;7.10;;;;;;;13.64;76.95;96856.31;6157618;23;20001;-65
2022/11/16 12:14:59;;;;;;;12.80;6.45;;;;;;;13.74;79.94;96849.13;6184803;23;20001;-62
2022/11/16 12:17:38;;;;;;;11.20;5.47;;;;;;;14.74;76.31;96842.16;6159204;23;20012;-62
2022/11/16 12:20:28;;;;;;;12.30;5.93;;;;;;;15.84;70.94;96840.69;6158810;23;20005;-62
2022/11/16 12:23:05;;;;;;;11.65;5.80;;;;;;;16.98;66.38;96841.00;6186526;23;20013;-64
2022/11/16 12:25:49;;;;;;;11.77;6.22;;;;;;;17.62;63.47;96838.75;6184908;23;20016;-63
2022/11/16 12:28:36;;;;;;;9.65;5.63;;;;;;;17.94;61.98;96837.56;6185372;23;20324;-63
2022/11/16 12:31:18;;;;;;;10.23;5.85;;;;;;;18.24;60.61;96835.69;6185610;23;20016;-63
2022/11/16 12:34:41;;;;;;;10.60;5.57;;;;;;;18.59;59.14;96835.03;6134313;23;20008;-64
2022/11/16 12:37:17;;;;;;;10.27;5.95;;;;;;;18.82;58.29;96832.22;6065336;23;20073;-63
2022/11/16 12:39:47;;;;;;;9.13;5.10;;;;;;;18.96;57.68;96828.69;6041181;23;20254;-63
2022/11/16 12:42:37;;;;;;;9.57;5.47;;;;;;;19.18;57.02;96832.13;6018629;23;20045;-63
2022/11/16 12:45:11;;;;;;;9.50;5.70;;;;;;;19.39;56.20;96826.75;6042795;23;20509;-63
2022/11/16 12:48:25;;;;;;;10.25;6.00;;;;;;;19.55;55.68;96828.31;6066139;23;20011;-62
2022/11/16 12:51:12;;;;;;;10.90;5.95;;;;;;;19.80;54.95;96822.53;6041901;23;20018;-62
2022/11/16 12:53:43;;;;;;;11.45;7.10;;;;;;;19.72;55.13;96823.53;6028924;23;20445;-62
2022/11/16 12:56:14;;;;;;;16.10;9.50;;;;;;;19.85;54.50;96822.75;6065040;23;20010;-62
2022/11/16 12:58:51;;;;;;;18.30;13.43;;;;;;;19.94;54.45;96818.91;6064866;23;20006;-62
2022/11/16 13:01:23;;;;;;;27.55;16.70;;;;;;;19.83;54.36;96819.47;6040432;23;20005;-62
2022/11/16 13:03:50;;;;;;;20.50;12.75;;;;;;;19.81;53.78;96814.34;6016897;23;20089;-63
2022/11/16 13:06:30;;;;;;;20.45;11.68;;;;;;;19.60;54.62;96815.22;6041228;23;20017;-63
2022/11/16 13:08:58;;;;;;;16.40;10.13;;;;;;;19.42;54.85;96817.56;6133096;23;20334;-63
2022/11/16 13:11:27;;;;;;;13.18;8.07;;;;;;;19.52;54.13;96823.38;6158591;23;20051;-62
2022/11/16 13:13:56;;;;;;;17.55;9.05;;;;;;;19.74;53.09;96816.16;6158058;23;20005;-63
2022/11/16 13:16:22;;;;;;;17.23;8.65;;;;;;;20.00;52.11;96814.66;6158974;23;20024;-62
2022/11/16 13:18:47;;;;;;;15.43;7.72;;;;;;;20.24;51.71;96816.78;6133669;23;20048;-63
2022/11/16 13:21:12;;;;;;;21.90;9.45;;;;;;;20.55;50.62;96802.97;6133916;23;20001;-62
2022/11/16 13:23:58;;;;;;;17.50;8.10;;;;;;;20.86;49.60;96806.91;6184009;23;20397;-62
2022/11/16 13:27:09;;;;;;;10.07;4.38;;;;;;;20.92;48.17;96814.09;6188061;23;20546;-63
2022/11/16 13:29:47;;;;;;;8.60;2.67;;;;;;;20.53;46.14;96810.34;6159002;23;20009;-62
2022/11/16 13:32:16;;;;;;;8.15;3.15;;;;;;;20.30;49.09;96800.03;6133664;23;20005;-62
2022/11/16 13:34:42;;;;;;;8.05;3.20;;;;;;;20.45;48.76;96807.03;6158111;23;20412;-62
2022/11/16 13:37:38;;;;;;;10.35;3.20;;;;;;;20.06;49.53;96798.72;6184386;23;20008;-63
2022/11/16 13:40:03;;;;;;;9.23;4.03;;;;;;;19.89;49.79;96789.44;6184402;23;20376;-62
2022/11/16 13:42:41;;;;;;;7.53;2.72;;;;;;;19.57;49.27;96798.84;6184242;23;20465;-62
2022/11/16 13:45:17;;;;;;;7.25;3.03;;;;;;;19.38;50.54;96798.53;6134494;23;19997;-62
2022/11/16 13:47:55;;;;;;;7.00;2.60;;;;;;;19.23;52.28;96795.16;6156886;23;20001;-62
2022/11/16 13:50:33;;;;;;;6.80;2.70;;;;;;;18.98;52.19;96794.75;6136198;23;20107;-62
2022/11/16 13:53:06;;;;;;;9.02;2.95;;;;;;;19.02;52.29;96796.00;6133750;23;20008;-62
2022/11/16 13:55:33;;;;;;;7.97;2.90;;;;;;;18.95;52.12;96795.13;6138749;23;20453;-62
2022/11/16 13:58:00;;;;;;;7.68;2.53;;;;;;;18.93;52.30;96794.53;6142016;23;20012;-63
2022/11/16 14:00:28;;;;;;;7.03;2.50;;;;;;;19.15;51.65;96795.31;6133192;23;20421;-63
2022/11/16 14:03:15;;;;;;;6.18;2.40;;;;;;;19.49;50.90;96797.16;6132476;23;20016;-62
2022/11/16 14:05:42;;;;;;;6.47;2.58;;;;;;;19.55;51.67;96790.25;6184246;23;20487;-63
2022/11/16 14:08:25;;;;;;;6.57;2.78;;;;;;;19.14;52.52;96794.47;6131616;23;19997;-63
2022/11/16 14:10:51;;;;;;;8.90;2.53;;;;;;;18.93;52.44;96794.53;6183581;23;20009;-63
2022/11/16 14:13:34;;;;;;;6.93;2.53;;;;;;;18.91;51.90;96791.22;6183376;23;20039;-62
2022/11/16 14:16:18;;;;;;;5.50;2.05;;;;;;;19.13;51.71;96781.38;6184312;23;20079;-62
2022/11/16 14:18:50;;;;;;;7.25;2.25;;;;;;;19.19;50.93;96791.25;6183578;23;20005;-62
2022/11/16 14:21:18;;;;;;;6.35;2.05;;;;;;;19.13;50.86;96776.06;6132384;23;20028;-63
2022/11/16 14:23:45;;;;;;;9.07;4.25;;;;;;;19.12;50.56;96775.25;6181593;23;20343;-62
2022/11/16 14:26:35;;;;;;;7.85;3.90;;;;;;;19.02;51.24;96769.44;6183580;23;20011;-62
2022/11/16 14:29:16;;;;;;;9.57;3.53;;;;;;;19.11;50.70;96778.91;6183514;23;20001;-63
2022/11/16 14:31:48;;;;;;;8.23;2.87;;;;;;;18.83;50.98;96780.75;6157462;23;20005;-63
2022/11/16 14:34:19;;;;;;;8.38;3.13;;;;;;;18.62;51.33;96774.41;6157934;23;20253;-63
2022/11/16 14:36:45;;;;;;;5.72;2.38;;;;;;;18.49;51.33;96779.59;6135884;23;20091;-62
2022/11/16 14:39:36;;;;;;;6.00;2.10;;;;;;;18.33;51.79;96771.88;6133473;23;19997;-62
2022/11/16 14:42:22;;;;;;;6.00;2.05;;;;;;;18.19;52.03;96774.38;6158221;23;20001;-60
2022/11/16 14:44:48;;;;;;;6.97;2.20;;;;;;;18.15;52.00;96765.16;6157444;23;19998;-63
2022/11/16 14:47:24;;;;;;;6.78;2.08;;;;;;;18.19;52.36;96774.38;6156810;23;20085;-62
2022/11/16 14:49:49;;;;;;;6.80;2.05;;;;;;;18.16;52.37;96766.78;6132578;23;20008;-62
2022/11/16 14:52:15;;;;;;;5.63;1.83;;;;;;;18.12;52.34;96776.16;6183902;23;20001;-62
2022/11/16 14:54:45;;;;;;;6.13;2.10;;;;;;;18.02;52.64;96767.66;6132915;23;20008;-62
2022/11/16 14:57:23;;;;;;;6.30;2.30;;;;;;;17.94;52.64;96765.13;6133558;23;20427;-62
2022/11/16 14:59:48;;;;;;;7.35;2.72;;;;;;;17.79;53.07;96763.34;6184114;23;19997;-62
2022/11/16 15:02:22;;;;;;;7.57;2.40;;;;;;;17.69;53.69;96757.47;6156966;23;20011;-63
2022/11/16 15:04:47;;;;;;;8.00;2.80;;;;;;;17.62;54.36;96761.00;6108344;23;20035;-62
2022/11/16 15:07:14;;;;;;;8.55;3.15;;;;;;;16.87;53.45;96764.66;6157100;23;20001;-63
2022/11/16 15:09:40;;;;;;;8.55;3.55;;;;;;;15.83;55.95;96765.03;6133623;23;20005;-63
2022/11/16 15:15:02;;;;;;;29.75;14.23;;;;;;;14.47;60.79;96766.75;6162155;23;20012;-65
2022/11/16 15:17:28;;;;;;;23.83;12.40;;;;;;;13.97;62.16;96763.22;6133537;23;20004;-66
2022/11/16 15:20:00;;;;;;;20.90;9.73;;;;;;;13.50;64.14;96774.28;6157102;23;20343;-66
2022/11/16 15:22:30;;;;;;;14.45;7.28;;;;;;;13.21;65.30;96771.13;6157118;23;20005;-66
2022/11/16 15:24:59;;;;;;;29.70;11.80;;;;;;;12.90;66.92;96781.28;6157508;23;20059;-66
2022/11/16 15:27:40;;;;;;;33.50;15.15;;;;;;;12.63;67.99;96790.13;6157000;23;20000;-66
2022/11/16 15:30:13;;;;;;;31.60;12.85;;;;;;;12.43;68.86;96784.25;6158020;23;20032;-66
2022/11/16 15:32:42;;;;;;;25.63;10.75;;;;;;;12.17;69.24;96784.97;6157372;23;20011;-66
2022/11/16 15:35:16;;;;;;;14.93;6.60;;;;;;;11.98;70.31;96782.50;6132943;23;20323;-66
2022/11/16 15:37:42;;;;;;;12.23;5.90;;;;;;;11.78;70.87;96795.72;6133929;23;20512;-66
2022/11/16 15:40:08;;;;;;;15.25;5.90;;;;;;;11.63;71.91;96791.91;6157040;23;20001;-67
2022/11/16 15:42:33;;;;;;;10.75;4.65;;;;;;;11.45;71.29;96783.97;6132289;23;20047;-66
2022/11/16 15:44:59;;;;;;;12.57;5.35;;;;;;;11.33;72.50;96791.22;6132823;23;20009;-66
2022/11/16 15:47:24;;;;;;;12.10;5.38;;;;;;;11.17;73.26;96786.56;6132757;23;19997;-66
2022/11/16 15:49:51;;;;;;;11.13;4.97;;;;;;;11.09;73.41;96794.34;6157302;23;20011;-66
2022/11/16 15:52:51;;;;;;;13.63;5.43;;;;;;;11.00;73.83;96792.56;6133386;23;20005;-66
2022/11/16 15:55:37;;;;;;;326.77;43.00;;;;;;;10.89;73.50;96792.75;6156804;23;19997;-65
2022/11/16 15:58:16;;;;;;;495.40;122.10;;;;;;;10.84;74.46;96776.59;6133866;23;20005;-64
2022/11/16 16:00:41;;;;;;;349.35;90.28;;;;;;;10.82;75.31;96789.03;6158671;23;20001;-65
2022/11/16 16:03:21;;;;;;;273.95;72.80;;;;;;;10.80;75.40;96788.34;6132103;23;20439;-65
2022/11/16 16:05:48;;;;;;;78.75;27.27;;;;;;;10.73;75.01;96782.81;6133609;23;20475;-65
2022/11/16 16:08:24;;;;;;;34.40;14.23;;;;;;;10.67;75.28;96771.13;6133009;23;20366;-65
2022/11/16 16:11:01;;;;;;;22.00;8.70;;;;;;;10.60;76.14;96775.28;6132495;23;20067;-63
2022/11/16 16:13:32;;;;;;;13.57;6.97;;;;;;;10.51;75.68;96772.66;6157297;23;20005;-65
2022/11/16 16:16:31;;;;;;;20.35;9.25;;;;;;;10.41;76.02;96789.19;6156547;23;20075;-64
2022/11/16 16:19:00;;;;;;;25.88;10.93;;;;;;;10.33;75.91;96788.25;6063283;23;20138;-65
2022/11/16 16:21:27;;;;;;;16.60;7.90;;;;;;;10.26;76.50;96784.53;6058504;23;20086;-65
2022/11/16 16:23:53;;;;;;;13.63;6.38;;;;;;;10.16;76.88;96777.44;6060368;23;20034;-68
2022/11/16 16:26:19;;;;;;;14.65;7.43;;;;;;;10.11;77.48;96782.25;6014642;23;20011;-64
2022/11/16 16:28:45;;;;;;;14.40;7.45;;;;;;;10.06;77.15;96788.91;6060964;23;20007;-66
2022/11/16 16:31:10;;;;;;;15.13;7.80;;;;;;;10.02;78.00;96785.72;6037818;23;20003;-64
2022/11/16 16:33:36;;;;;;;15.32;8.55;;;;;;;9.94;77.73;96783.78;6038949;23;20070;-65
2022/11/16 16:36:02;;;;;;;14.10;8.30;;;;;;;9.85;78.25;96784.59;6062101;23;20388;-64
2022/11/16 16:38:27;;;;;;;14.88;9.05;;;;;;;9.80;78.41;96784.16;6039918;23;20007;-65
2022/11/16 16:41:00;;;;;;;12.85;7.82;;;;;;;9.77;79.44;96778.34;6040426;23;20002;-65
2022/11/16 16:43:26;;;;;;;17.50;7.45;;;;;;;9.72;79.43;96776.97;5994354;23;20406;-66
2022/11/16 16:45:51;;;;;;;13.98;7.15;;;;;;;9.69;79.43;96772.00;6040925;23;20644;-65
2022/11/16 16:48:16;;;;;;;11.68;7.13;;;;;;;9.62;79.09;96767.44;6064974;23;20006;-65
2022/11/16 16:50:42;;;;;;;12.90;6.97;;;;;;;9.56;79.44;96766.19;6040820;23;20011;-64
2022/11/16 16:53:10;;;;;;;12.93;6.93;;;;;;;9.50;79.48;96758.88;6064677;23;20413;-64
2022/11/16 16:55:35;;;;;;;14.07;7.97;;;;;;;9.46;79.67;96765.31;6128593;23;20346;-65
2022/11/16 16:58:01;;;;;;;15.07;9.45;;;;;;;9.40;79.93;96769.31;6158728;23;20426;-65
2022/11/16 17:00:27;;;;;;;15.25;8.82;;;;;;;9.35;79.88;96768.06;6133903;23;20011;-65
2022/11/16 17:02:52;;;;;;;14.60;8.80;;;;;;;9.28;80.10;96771.19;6184524;23;20009;-64
2022/11/16 17:05:17;;;;;;;15.35;8.02;;;;;;;9.21;79.60;96772.69;6184449;23;20001;-64
2022/11/16 17:07:43;;;;;;;14.95;8.52;;;;;;;9.15;80.58;96775.84;6184153;23;20439;-64
2022/11/16 17:10:08;;;;;;;13.45;6.95;;;;;;;9.10;80.37;96774.56;6158502;23;20015;-64
2022/11/16 17:12:34;;;;;;;10.43;5.75;;;;;;;9.03;80.58;96772.47;6184452;23;20009;-65
2022/11/16 17:14:59;;;;;;;31.17;13.60;;;;;;;8.97;80.60;96759.09;6184749;23;20001;-64
2022/11/16 17:17:24;;;;;;;28.45;12.82;;;;;;;8.94;80.48;96769.78;6158779;23;20012;-64
2022/11/16 17:19:50;;;;;;;25.40;10.05;;;;;;;8.90;80.94;96774.47;6184579;23;20005;-65
2022/11/16 17:22:16;;;;;;;18.20;9.30;;;;;;;8.87;81.38;96764.25;6184904;23;20084;-64
2022/11/16 17:24:42;;;;;;;15.88;9.20;;;;;;;8.84;81.65;96768.91;6157686;23;20036;-64
2022/11/16 17:27:07;;;;;;;18.15;10.52;;;;;;;8.72;82.19;96761.16;6184828;23;20005;-65
2022/11/16 17:29:32;;;;;;;15.90;9.55;;;;;;;8.72;83.06;96763.78;6158028;23;20005;-65
2022/11/16 17:31:58;;;;;;;19.75;11.85;;;;;;;8.72;82.92;96760.34;6184801;23;20005;-66
2022/11/16 17:34:23;;;;;;;21.92;12.48;;;;;;;8.73;83.06;96752.34;6183719;23;20001;-65
2022/11/16 17:36:48;;;;;;;21.98;12.75;;;;;;;8.74;82.87;96747.94;6184814;23;20001;-65
2022/11/16 17:39:14;;;;;;;18.95;11.20;;;;;;;8.74;82.76;96735.72;6184422;23;20012;-65
2022/11/16 17:41:40;;;;;;;22.75;11.98;;;;;;;8.68;82.46;96744.06;6183992;23;20001;-65
2022/11/16 17:44:06;;;;;;;61.13;25.67;;;;;;;8.65;82.62;96749.56;6157722;23;20012;-65
2022/11/16 17:46:31;;;;;;;37.92;20.02;;;;;;;8.61;82.54;96742.13;6157946;23;20001;-66
2022/11/16 17:48:56;;;;;;;26.17;15.75;;;;;;;8.57;82.55;96746.78;6184239;23;20015;-64
2022/11/16 17:51:23;;;;;;;37.58;18.45;;;;;;;8.52;82.91;96743.69;6184307;23;20308;-65
2022/11/16 17:53:48;;;;;;;63.03;30.20;;;;;;;8.49;83.10;96743.94;6157361;23;20001;-65
2022/11/16 17:56:18;;;;;;;81.85;40.05;;;;;;;8.46;83.20;96733.75;6183706;23;20004;-65
2022/11/16 17:58:44;;;;;;;48.25;26.45;;;;;;;8.40;83.34;96739.50;6157715;23;20004;-65
2022/11/16 18:01:09;;;;;;;28.77;16.25;;;;;;;8.35;83.50;96741.63;6184103;23;19997;-65
2022/11/16 18:03:36;;;;;;;21.52;13.60;;;;;;;8.30;83.86;96740.22;6184117;23;20051;-65
2022/11/16 18:06:03;;;;;;;20.65;11.88;;;;;;;8.30;83.14;96739.41;6158008;23;20416;-65
2022/11/16 18:08:30;;;;;;;47.85;23.95;;;;;;;8.22;83.76;96734.78;6183865;23;20419;-65
2022/11/16 18:10:56;;;;;;;39.08;20.73;;;;;;;8.21;83.46;96735.75;6133196;23;20063;-65